createdAt,value
2019-03-16T00:01:13.642Z,12.47
2019-03-16T00:03:43.434Z,12.03
2019-03-16T00:06:13.314Z,12.97
2019-03-16T00:08:43.072Z,13.07
2019-03-16T00:11:12.747Z,14.30
2019-03-16T00:13:42.571Z,13.53
2019-03-16T00:16:12.332Z,12.47
2019-03-16T00:18:42.178Z,12.27
2019-03-16T00:21:12.085Z,13.17
2019-03-16T00:23:41.938Z,12.17
2019-03-16T00:26:11.720Z,10.07
2019-03-16T00:28:41.424Z,11.47
2019-03-16T00:31:11.219Z,12.00
2019-03-16T00:33:40.966Z,11.77
2019-03-16T00:36:10.762Z,12.27
2019-03-16T00:38:41.668Z,11.13
2019-03-16T00:41:11.475Z,11.77
2019-03-16T00:43:41.361Z,9.40
2019-03-16T00:46:11.217Z,10.40
2019-03-16T00:48:41.028Z,9.47
2019-03-16T00:51:10.901Z,10.07
2019-03-16T00:53:40.660Z,10.03
2019-03-16T00:56:10.450Z,11.50
2019-03-16T00:58:40.304Z,9.37
2019-03-16T01:01:10.246Z,10.77
2019-03-16T01:03:40.126Z,9.60
2019-03-16T01:06:10.065Z,8.73
2019-03-16T01:08:40.062Z,9.27
2019-03-16T01:11:09.771Z,10.63
2019-03-16T01:13:39.601Z,7.90
2019-03-16T01:16:09.476Z,9.13
2019-03-16T01:18:39.166Z,8.70
2019-03-16T01:21:08.924Z,9.23
2019-03-16T01:23:38.786Z,8.13
2019-03-16T01:26:08.656Z,8.20
2019-03-16T01:28:38.549Z,10.73
2019-03-16T01:31:08.198Z,10.60
2019-03-16T01:33:38.110Z,8.30
2019-03-16T01:36:09.640Z,8.47
2019-03-16T01:38:39.511Z,9.13
2019-03-16T01:41:09.354Z,7.67
2019-03-16T01:43:39.056Z,8.50
2019-03-16T01:46:08.854Z,8.17
2019-03-16T01:48:38.686Z,8.03
2019-03-16T01:51:08.515Z,8.20
2019-03-16T01:53:38.389Z,7.47
2019-03-16T01:56:08.155Z,7.23
2019-03-16T01:58:37.874Z,6.47
2019-03-16T02:01:07.830Z,9.57
2019-03-16T02:03:37.756Z,8.83
2019-03-16T02:06:07.683Z,7.57
2019-03-16T02:08:37.602Z,8.07
2019-03-16T02:11:07.510Z,5.93
2019-03-16T02:13:37.278Z,6.57
2019-03-16T02:16:11.326Z,6.83
2019-03-16T02:18:38.988Z,8.03
2019-03-16T02:21:08.749Z,4.80
2019-03-16T02:23:38.668Z,7.63
2019-03-16T02:26:08.451Z,6.37
2019-03-16T02:28:38.308Z,7.87
2019-03-16T02:31:08.156Z,6.43
2019-03-16T02:33:37.891Z,7.17
2019-03-16T02:36:07.633Z,6.60
2019-03-16T02:38:37.403Z,6.80
2019-03-16T02:41:07.168Z,8.17
2019-03-16T02:43:38.199Z,7.53
2019-03-16T02:46:07.998Z,5.87
2019-03-16T02:48:37.739Z,5.57
2019-03-16T02:51:07.548Z,6.00
2019-03-16T02:53:37.371Z,6.20
2019-03-16T02:56:07.146Z,5.47
2019-03-16T02:58:37.018Z,5.20
2019-03-16T03:01:06.928Z,8.53
2019-03-16T03:03:36.629Z,7.07
2019-03-16T03:06:06.601Z,5.17
2019-03-16T03:08:36.285Z,5.65
2019-03-16T03:11:06.056Z,4.50
2019-03-16T03:13:35.846Z,6.90
2019-03-16T03:16:05.633Z,6.17
2019-03-16T03:18:35.354Z,6.70
2019-03-16T03:21:05.215Z,3.93
2019-03-16T03:23:34.911Z,4.60
2019-03-16T03:26:04.880Z,6.47
2019-03-16T03:28:34.686Z,6.17
2019-03-16T03:31:04.517Z,5.87
2019-03-16T03:33:57.287Z,5.57
2019-03-16T03:36:05.908Z,4.83
2019-03-16T03:38:35.810Z,6.23
2019-03-16T03:41:05.745Z,5.77
2019-03-16T03:43:35.598Z,5.37
2019-03-16T03:46:05.358Z,5.27
2019-03-16T03:48:35.129Z,5.37
2019-03-16T03:51:04.973Z,3.97
2019-03-16T03:53:34.722Z,5.20
2019-03-16T03:56:04.870Z,3.73
2019-03-16T03:58:34.754Z,5.13
2019-03-16T04:01:04.839Z,4.80
2019-03-16T04:03:34.780Z,5.13
2019-03-16T04:06:04.707Z,6.23
2019-03-16T04:08:34.708Z,5.50
2019-03-16T04:11:04.513Z,5.60
2019-03-16T04:13:34.253Z,4.73
2019-03-16T04:16:04.166Z,3.87
2019-03-16T04:18:34.091Z,5.27
2019-03-16T04:21:04.041Z,3.90
2019-03-16T04:23:33.824Z,3.57
2019-03-16T04:26:03.622Z,4.07
2019-03-16T04:28:33.558Z,5.20
2019-03-16T04:31:03.430Z,4.20
2019-03-16T04:33:33.146Z,5.33
2019-03-16T04:36:02.977Z,4.30
2019-03-16T04:38:32.950Z,4.10
2019-03-16T04:41:02.834Z,3.50
2019-03-16T04:43:32.782Z,5.03
2019-03-16T04:46:02.632Z,4.13
2019-03-16T04:48:32.459Z,4.20
2019-03-16T04:51:02.378Z,3.33
2019-03-16T04:53:32.333Z,4.10
2019-03-16T04:56:02.081Z,5.50
2019-03-16T04:58:31.793Z,4.27
2019-03-16T05:01:01.457Z,3.40
2019-03-16T05:03:31.184Z,4.53
2019-03-16T05:06:00.958Z,4.20
2019-03-16T05:08:30.649Z,4.40
2019-03-16T05:11:00.469Z,4.60
2019-03-16T05:13:31.054Z,4.37
2019-03-16T05:16:00.912Z,3.87
2019-03-16T05:18:30.634Z,3.70
2019-03-16T05:21:00.408Z,5.63
2019-03-16T05:23:30.350Z,4.53
2019-03-16T05:26:00.233Z,5.17
2019-03-16T05:28:30.174Z,4.07
2019-03-16T05:31:00.049Z,6.07
2019-03-16T05:33:29.957Z,5.57
2019-03-16T05:35:59.842Z,3.37
2019-03-16T05:38:29.668Z,3.37
2019-03-16T05:40:59.431Z,3.63
2019-03-16T05:43:29.220Z,5.33
2019-03-16T05:45:59.010Z,2.07
2019-03-16T05:48:28.971Z,3.17
2019-03-16T05:50:58.737Z,3.50
2019-03-16T05:53:28.613Z,4.57
2019-03-16T05:55:58.504Z,3.73
2019-03-16T05:58:28.253Z,3.07
2019-03-16T06:00:58.126Z,4.10
2019-03-16T06:03:28.005Z,4.20
2019-03-16T06:05:57.796Z,5.83
2019-03-16T06:08:27.594Z,2.00
2019-03-16T06:10:57.427Z,4.03
2019-03-16T06:13:27.270Z,3.25
2019-03-16T06:15:57.241Z,3.13
2019-03-16T06:18:26.967Z,3.67
2019-03-16T06:20:56.749Z,5.17
2019-03-16T06:23:26.573Z,4.70
2019-03-16T06:25:56.498Z,3.53
2019-03-16T06:28:26.232Z,4.13
2019-03-16T06:30:56.099Z,3.93
2019-03-16T06:33:25.848Z,2.77
2019-03-16T06:35:55.766Z,3.63
2019-03-16T06:38:25.722Z,4.07
2019-03-16T06:40:55.601Z,2.80
2019-03-16T06:43:26.416Z,2.83
2019-03-16T06:45:56.255Z,2.87
2019-03-16T06:48:26.091Z,3.30
2019-03-16T06:50:56.909Z,3.40
2019-03-16T06:53:26.658Z,2.07
2019-03-16T06:55:56.457Z,3.27
2019-03-16T06:58:26.388Z,2.90
2019-03-16T07:00:56.415Z,3.07
2019-03-16T07:03:26.376Z,3.60
2019-03-16T07:05:56.186Z,2.50
2019-03-16T07:08:26.047Z,2.47
2019-03-16T07:10:55.926Z,3.47
2019-03-16T07:13:25.758Z,2.50
2019-03-16T07:15:55.555Z,2.80
2019-03-16T07:18:25.242Z,2.47
2019-03-16T07:20:55.087Z,4.30
2019-03-16T07:23:25.057Z,4.13
2019-03-16T07:25:55.046Z,2.67
2019-03-16T07:28:24.895Z,2.90
2019-03-16T07:30:54.750Z,2.70
2019-03-16T07:33:24.705Z,3.40
2019-03-16T07:35:54.549Z,3.13
2019-03-16T07:38:24.318Z,3.13
2019-03-16T07:40:54.176Z,2.53
2019-03-16T07:43:24.076Z,3.07
2019-03-16T07:45:54.967Z,3.87
2019-03-16T07:48:24.809Z,3.23
2019-03-16T07:50:54.502Z,2.53
2019-03-16T07:53:24.197Z,3.03
2019-03-16T07:55:54.068Z,3.53
2019-03-16T07:58:23.878Z,2.80
2019-03-16T08:00:53.760Z,3.23
2019-03-16T08:03:23.542Z,3.90
2019-03-16T08:05:53.314Z,2.97
2019-03-16T08:08:23.068Z,4.83
2019-03-16T08:10:52.782Z,4.60
2019-03-16T08:13:22.592Z,3.77
2019-03-16T08:15:52.458Z,3.17
2019-03-16T08:18:22.519Z,3.33
2019-03-16T08:20:52.854Z,2.83
2019-03-16T08:23:22.523Z,4.80
2019-03-16T08:25:52.376Z,5.47
2019-03-16T08:28:22.250Z,3.40
2019-03-16T08:30:51.938Z,3.10
2019-03-16T08:33:21.828Z,6.03
2019-03-16T08:35:51.552Z,4.33
2019-03-16T08:38:21.265Z,2.80
2019-03-16T08:40:50.926Z,5.07
2019-03-16T08:43:20.731Z,3.30
2019-03-16T08:45:50.630Z,5.10
2019-03-16T08:48:23.010Z,3.83
2019-03-16T08:51:13.998Z,3.20
2019-03-16T08:53:44.075Z,4.77
2019-03-16T08:56:13.919Z,4.97
2019-03-16T08:58:43.857Z,5.63
2019-03-16T09:01:13.927Z,4.87
2019-03-16T09:03:44.146Z,4.27
2019-03-16T09:06:14.051Z,4.50
2019-03-16T09:08:43.802Z,5.77
2019-03-16T09:11:13.639Z,6.10
2019-03-16T09:13:43.340Z,6.10
2019-03-16T09:16:13.060Z,5.20
2019-03-16T09:18:42.696Z,5.00
2019-03-16T09:21:12.374Z,4.83
2019-03-16T09:23:42.521Z,4.93
2019-03-16T09:26:12.269Z,5.07
2019-03-16T09:28:42.030Z,5.00
2019-03-16T09:31:11.931Z,7.33
2019-03-16T09:33:41.640Z,5.70
2019-03-16T09:36:11.463Z,4.27
2019-03-16T09:38:41.129Z,4.80
2019-03-16T09:41:10.994Z,5.77
2019-03-16T09:43:40.776Z,5.27
2019-03-16T09:46:10.620Z,5.80
2019-03-16T09:48:40.585Z,8.03
2019-03-16T09:51:10.495Z,6.63
2019-03-16T09:53:40.415Z,4.73
2019-03-16T09:56:10.242Z,5.90
2019-03-16T09:58:40.123Z,4.00
2019-03-16T10:01:09.967Z,3.43
2019-03-16T10:03:39.753Z,4.83
2019-03-16T10:06:09.724Z,5.57
2019-03-16T10:08:39.550Z,3.40
2019-03-16T10:11:09.680Z,7.10
2019-03-16T10:13:39.550Z,4.23
2019-03-16T10:16:09.482Z,6.63
2019-03-16T10:18:39.317Z,4.77
2019-03-16T10:21:09.114Z,4.97
2019-03-16T10:23:38.941Z,3.60
2019-03-16T10:26:08.723Z,4.63
2019-03-16T10:28:43.587Z,6.33
2019-03-16T10:31:10.367Z,4.57
2019-03-16T10:33:40.171Z,6.90
2019-03-16T10:36:09.909Z,3.33
2019-03-16T10:38:39.712Z,5.80
2019-03-16T10:41:09.598Z,3.80
2019-03-16T10:43:39.595Z,4.33
2019-03-16T10:46:09.462Z,7.13
2019-03-16T10:48:39.177Z,5.27
2019-03-16T10:51:09.483Z,7.53
2019-03-16T10:53:39.243Z,4.90
2019-03-16T10:56:13.138Z,3.37
2019-03-16T10:58:55.658Z,3.67
2019-03-16T11:01:14.435Z,6.00
2019-03-16T11:03:44.291Z,4.70
2019-03-16T11:06:14.205Z,4.70
2019-03-16T11:08:44.047Z,3.67
2019-03-16T11:11:13.878Z,4.13
2019-03-16T11:13:43.766Z,6.80
2019-03-16T11:16:13.641Z,3.70
2019-03-16T11:18:43.462Z,4.97
2019-03-16T11:21:13.261Z,3.57
2019-03-16T11:23:43.150Z,6.10
2019-03-16T11:26:12.812Z,4.37
2019-03-16T11:28:42.706Z,4.00
2019-03-16T11:31:12.553Z,4.97
2019-03-16T11:33:42.423Z,3.70
2019-03-16T11:36:12.209Z,5.13
2019-03-16T11:38:42.047Z,6.13
2019-03-16T11:41:24.292Z,4.47
2019-03-16T11:43:51.262Z,3.33
2019-03-16T11:46:20.937Z,3.50
2019-03-16T11:48:50.764Z,3.17
2019-03-16T11:51:20.679Z,5.33
2019-03-16T11:53:50.518Z,3.83
2019-03-16T11:59:42.293Z,3.93
2019-03-16T12:02:12.206Z,4.33
2019-03-16T12:04:41.925Z,3.67
2019-03-16T12:07:11.653Z,3.90
2019-03-16T12:09:41.385Z,3.57
2019-03-16T12:12:11.216Z,3.40
2019-03-16T12:14:40.993Z,2.33
2019-03-16T12:17:10.747Z,3.67
2019-03-16T12:19:40.810Z,3.03
2019-03-16T12:22:21.715Z,5.37
2019-03-16T12:24:51.550Z,4.27
2019-03-16T12:27:24.810Z,3.27
2019-03-16T12:29:54.748Z,4.43
2019-03-16T12:32:24.851Z,2.53
2019-03-16T12:34:54.739Z,2.70
2019-03-16T12:37:24.694Z,2.87
2019-03-16T12:39:54.633Z,3.03
2019-03-16T12:42:24.693Z,5.17
2019-03-16T12:44:54.658Z,2.73
2019-03-16T12:47:24.695Z,4.13
2019-03-16T12:49:54.550Z,3.27
2019-03-16T12:52:24.342Z,3.63
2019-03-16T12:54:54.222Z,4.27
2019-03-16T12:57:24.137Z,2.50
2019-03-16T12:59:54.035Z,2.50
2019-03-16T13:02:23.805Z,4.73
2019-03-16T13:04:53.631Z,3.00
2019-03-16T13:07:23.596Z,1.63
2019-03-16T13:09:53.469Z,2.93
2019-03-16T13:12:23.225Z,2.73
2019-03-16T13:14:53.118Z,2.13
2019-03-16T13:17:23.039Z,2.80
2019-03-16T13:19:52.963Z,2.40
2019-03-16T13:22:22.775Z,2.57
2019-03-16T13:24:52.695Z,2.53
2019-03-16T13:27:22.654Z,2.57
2019-03-16T13:29:59.005Z,2.00
2019-03-16T13:32:23.967Z,1.90
2019-03-16T13:34:53.883Z,3.40
2019-03-16T13:37:37.213Z,3.27
2019-03-16T13:40:08.092Z,2.23
2019-03-16T13:42:37.931Z,2.23
2019-03-16T13:45:08.118Z,2.43
2019-03-16T13:47:38.149Z,2.10
2019-03-16T13:50:09.988Z,1.87
2019-03-16T13:52:41.044Z,1.40
2019-03-16T13:55:11.416Z,2.83
2019-03-16T13:57:42.410Z,2.53
2019-03-16T14:00:13.805Z,1.60
2019-03-16T14:02:44.728Z,2.10
2019-03-16T14:05:14.955Z,2.40
2019-03-16T14:07:45.076Z,1.33
2019-03-16T14:10:16.943Z,3.63
2019-03-16T14:13:24.935Z,3.50
2019-03-16T14:15:54.687Z,1.77
2019-03-16T14:18:25.559Z,2.20
2019-03-16T14:20:55.303Z,1.13
2019-03-16T14:23:25.023Z,1.70
2019-03-16T14:25:54.870Z,1.17
2019-03-16T14:28:24.917Z,1.53
2019-03-16T14:30:55.140Z,2.17
2019-03-16T14:33:24.927Z,1.40
2019-03-16T14:35:54.834Z,2.53
2019-03-16T14:38:24.677Z,2.40
2019-03-16T14:40:54.719Z,2.43
2019-03-16T14:43:24.712Z,2.23
2019-03-16T14:45:54.658Z,2.03
2019-03-16T14:48:25.874Z,1.53
2019-03-16T14:50:55.919Z,2.17
2019-03-16T14:53:25.798Z,1.90
2019-03-16T14:55:56.485Z,1.53
2019-03-16T14:58:26.520Z,1.30
2019-03-16T15:00:56.447Z,1.63
2019-03-16T15:03:26.206Z,1.40
2019-03-16T15:05:56.164Z,2.97
2019-03-16T15:08:25.958Z,1.57
2019-03-16T15:10:55.897Z,1.57
2019-03-16T15:13:27.141Z,1.73
2019-03-16T15:15:57.046Z,1.00
2019-03-16T15:18:26.767Z,1.77
2019-03-16T15:20:57.176Z,1.63
2019-03-16T15:23:27.136Z,2.90
2019-03-16T15:25:57.054Z,2.80
2019-03-16T15:28:26.847Z,3.30
2019-03-16T15:30:56.643Z,1.20
2019-03-16T15:33:26.358Z,3.17
2019-03-16T15:35:56.327Z,1.97
2019-03-16T15:38:27.094Z,3.10
2019-03-16T15:40:56.920Z,1.37
2019-03-16T15:43:27.474Z,1.63
2019-03-16T15:46:26.139Z,1.97
2019-03-16T15:49:04.692Z,3.23
2019-03-16T15:51:40.008Z,1.20
2019-03-16T15:54:38.908Z,1.47
2019-03-16T15:57:50.362Z,2.70
2019-03-16T16:00:32.600Z,1.67
2019-03-16T16:03:02.545Z,1.50
2019-03-16T16:05:32.371Z,1.97
2019-03-16T16:08:19.996Z,1.77
2019-03-16T16:11:00.447Z,2.50
2019-03-16T16:13:28.265Z,1.93
2019-03-16T16:15:58.530Z,1.77
2019-03-16T16:18:28.488Z,3.10
2019-03-16T16:20:59.351Z,1.67
2019-03-16T16:23:29.217Z,1.57
2019-03-16T16:25:58.956Z,1.60
2019-03-16T16:28:28.828Z,1.97
2019-03-16T16:30:58.586Z,2.07
2019-03-16T16:33:28.322Z,1.10
2019-03-16T16:36:09.861Z,2.17
2019-03-16T16:38:39.957Z,1.90
2019-03-16T16:41:14.142Z,1.80
2019-03-16T16:43:44.037Z,2.03
2019-03-16T16:46:24.014Z,1.87
2019-03-16T16:48:53.833Z,1.20
2019-03-16T16:51:25.840Z,1.77
2019-03-16T16:53:55.595Z,1.60
2019-03-16T16:56:25.462Z,1.33
2019-03-16T16:58:56.158Z,2.03
2019-03-16T17:01:29.473Z,1.57
2019-03-16T17:03:57.463Z,2.50
2019-03-16T17:06:27.370Z,0.90
2019-03-16T17:08:57.194Z,1.20
2019-03-16T17:11:27.030Z,1.57
2019-03-16T17:13:57.950Z,3.43
2019-03-16T17:16:27.820Z,1.87
2019-03-16T17:19:25.000Z,3.63
2019-03-16T17:21:46.016Z,2.90
2019-03-16T17:24:15.815Z,1.83
2019-03-16T17:26:45.646Z,4.73
2019-03-16T17:29:16.645Z,1.33
2019-03-16T17:31:46.650Z,2.93
2019-03-16T17:34:25.121Z,2.10
2019-03-16T17:36:54.905Z,2.27
2019-03-16T17:39:28.615Z,1.80
2019-03-16T17:42:00.670Z,1.87
2019-03-16T17:44:59.179Z,2.20
2019-03-16T17:47:39.945Z,3.37
2019-03-16T17:50:19.364Z,3.23
2019-03-16T17:55:51.491Z,2.10
2019-03-16T17:58:22.253Z,4.00
2019-03-16T18:00:52.069Z,3.50
2019-03-16T18:03:31.840Z,3.93
2019-03-16T18:06:14.262Z,4.70
2019-03-16T18:08:45.134Z,5.13
2019-03-16T18:11:14.884Z,6.63
2019-03-16T18:13:44.786Z,12.27
2019-03-16T18:16:14.573Z,8.17
2019-03-16T18:18:44.259Z,10.17
2019-03-16T18:21:14.114Z,9.23
2019-03-16T18:23:43.878Z,4.73
2019-03-16T18:26:13.639Z,12.87
2019-03-16T18:28:43.378Z,6.70
2019-03-16T18:31:13.093Z,9.17
2019-03-16T18:33:42.829Z,7.57
2019-03-16T18:36:13.516Z,9.07
2019-03-16T18:38:43.238Z,9.00
2019-03-16T18:41:12.938Z,8.57
2019-03-16T18:43:42.647Z,6.97
2019-03-16T18:46:14.026Z,5.80
2019-03-16T18:48:43.890Z,7.90
2019-03-16T18:51:13.760Z,6.57
2019-03-16T18:53:45.512Z,6.70
2019-03-16T18:56:14.971Z,6.93
2019-03-16T18:58:44.645Z,6.47
2019-03-16T19:01:14.376Z,6.07
2019-03-16T19:03:45.002Z,5.23
2019-03-16T19:06:15.132Z,7.30
2019-03-16T19:08:45.092Z,5.37
2019-03-16T19:11:14.852Z,6.70
2019-03-16T19:13:44.561Z,10.33
2019-03-16T19:16:14.368Z,10.60
2019-03-16T19:18:44.051Z,6.60
2019-03-16T19:21:13.869Z,4.63
2019-03-16T19:23:43.658Z,9.90
2019-03-16T19:26:13.510Z,7.10
2019-03-16T19:28:44.664Z,10.70
2019-03-16T19:31:17.805Z,5.83
2019-03-16T19:33:49.049Z,8.40
2019-03-16T19:36:18.864Z,8.40
2019-03-16T19:38:49.399Z,5.67
2019-03-16T19:41:19.183Z,7.57
2019-03-16T19:43:50.302Z,6.03
2019-03-16T19:46:20.244Z,8.63
2019-03-16T19:48:50.008Z,9.07
2019-03-16T19:51:20.882Z,7.70
2019-03-16T19:53:50.550Z,8.67
2019-03-16T19:56:20.638Z,7.73
2019-03-16T19:59:00.071Z,6.30
2019-03-16T20:01:21.788Z,5.00
2019-03-16T20:03:51.497Z,8.90
2019-03-16T20:06:26.046Z,7.87
2019-03-16T20:08:52.643Z,7.80
2019-03-16T20:11:25.656Z,6.37
2019-03-16T20:13:55.576Z,7.20
2019-03-16T20:16:25.638Z,6.70
2019-03-16T20:18:55.341Z,8.27
2019-03-16T20:21:34.005Z,6.43
2019-03-16T20:24:03.920Z,7.57
2019-03-16T20:26:33.578Z,6.67
2019-03-16T20:29:03.390Z,7.57
2019-03-16T20:31:33.175Z,6.00
2019-03-16T20:34:13.823Z,5.97
2019-03-16T20:36:46.671Z,5.50
2019-03-16T20:39:16.353Z,9.43
2019-03-16T21:44:49.249Z,4.97
2019-03-16T21:48:20.622Z,5.83
2019-03-16T21:50:50.680Z,5.03
2019-03-16T21:53:20.758Z,5.90
2019-03-16T21:55:50.617Z,3.90
2019-03-16T21:58:20.871Z,5.45
2019-03-16T22:00:50.679Z,5.83
2019-03-16T22:03:20.826Z,6.43
2019-03-16T22:05:50.976Z,5.17
2019-03-16T22:08:20.938Z,6.05
2019-03-16T22:10:50.963Z,3.63
2019-03-16T22:13:20.662Z,4.70
2019-03-16T22:15:50.714Z,3.33
2019-03-16T22:18:20.606Z,5.20
2019-03-16T22:20:59.180Z,5.92
2019-03-16T22:23:30.549Z,8.33
2019-03-16T22:26:00.209Z,3.87
2019-03-16T22:28:29.955Z,4.33
2019-03-16T22:30:59.608Z,4.60
2019-03-16T22:33:29.362Z,6.80
2019-03-16T22:35:59.098Z,5.63
2019-03-16T22:38:28.933Z,4.53
2019-03-16T22:40:58.871Z,4.90
2019-03-16T22:43:28.722Z,6.13
2019-03-16T22:45:58.434Z,5.47
2019-03-16T22:48:28.275Z,3.97
2019-03-16T22:50:58.293Z,3.13
2019-03-16T22:53:28.022Z,5.10
2019-03-16T22:55:57.686Z,4.27
2019-03-16T22:58:27.345Z,5.67
2019-03-16T23:00:57.019Z,4.80
2019-03-16T23:03:26.726Z,5.47
2019-03-16T23:05:56.356Z,4.93
2019-03-16T23:08:26.118Z,3.93
2019-03-16T23:10:55.927Z,6.43
2019-03-16T23:13:25.643Z,3.63
2019-03-16T23:15:55.348Z,5.97
2019-03-16T23:18:25.158Z,3.97
2019-03-16T23:20:54.870Z,3.67
2019-03-16T23:23:24.558Z,5.60
2019-03-16T23:25:54.399Z,5.50
2019-03-16T23:28:24.163Z,6.00
2019-03-16T23:30:53.992Z,5.20
2019-03-16T23:33:23.839Z,6.53
2019-03-16T23:35:53.676Z,3.77
2019-03-16T23:38:24.510Z,5.70
2019-03-16T23:40:54.177Z,4.73
2019-03-16T23:43:23.882Z,4.17
2019-03-16T23:45:53.785Z,4.33
2019-03-16T23:48:23.521Z,3.57
2019-03-16T23:50:53.769Z,4.17
2019-03-16T23:53:23.510Z,4.13
2019-03-16T23:55:53.622Z,4.57
2019-03-16T23:58:23.349Z,4.33
